ADDS METAR Data INFO
IDs: Format: Raw Decoded Include TAF

Data at: 0949 UTC 25 Jun 2018

KORB 250933Z AUTO 00000KT 10SM CLR 09/03 A3012 RMK AO2
KORB 250913Z AUTO 00000KT 10SM CLR 10/02 A3012 RMK AO2
KORB 250853Z AUTO 00000KT 10SM CLR 11/00 A3012 RMK AO2
KORB 250833Z AUTO 00000KT 10SM CLR 11/M01 A3011 RMK AO2
KORB 250813Z AUTO 14003KT 10SM CLR 11/M01 A3011 RMK AO2
KORB 250753Z AUTO 13004KT 10SM CLR 11/M01 A3012 RMK AO2
KORB 250733Z AUTO 13004KT 10SM CLR 11/M02 A3013 RMK AO2
KORB 250713Z AUTO 13004KT 10SM CLR 11/M01 A3013 RMK AO2
KORB 250653Z AUTO 13004KT 10SM CLR 11/00 A3013 RMK AO2
KORB 250633Z AUTO 14004KT 10SM CLR 11/01 A3014 RMK AO2
KORB 250613Z AUTO 14004KT 10SM CLR 11/01 A3014 RMK AO2
KORB 250553Z AUTO 14005KT 10SM CLR 11/01 A3015 RMK AO2
KORB 250533Z AUTO 14003KT 10SM CLR 11/04 A3015 RMK AO2
KORB 250514Z AUTO 00000KT 10SM CLR 11/04 A3014 RMK AO2
KORB 250453Z AUTO 12003KT 10SM CLR 12/05 A3014 RMK AO2
KORB 250433Z AUTO 13003KT 10SM CLR 12/06 A3014 RMK AO2
KORB 250413Z AUTO 00000KT 10SM CLR 13/06 A3014 RMK AO2
KORB 250353Z AUTO 13003KT 10SM CLR 13/06 A3015 RMK AO2
KORB 250333Z AUTO 13004KT 10SM CLR 13/07 A3013 RMK AO2
KORB 250313Z AUTO 13004KT 10SM CLR 14/07 A3013 RMK AO2
KORB 250253Z AUTO 14004KT 10SM CLR 14/08 A3013 RMK AO2
KORB 250233Z AUTO 14005KT 10SM CLR 15/08 A3012 RMK AO2
KORB 250213Z AUTO 12004KT 10SM CLR 16/08 A3011 RMK AO2
KORB 250153Z AUTO 13004KT 10SM CLR 16/09 A3011 RMK AO2
KORB 250135Z AUTO 13003KT 10SM CLR 17/09 A3011 RMK AO2
KORB 250114Z AUTO 11004KT 10SM CLR 18/10 A3010 RMK AO2
KORB 250053Z AUTO 12003KT 10SM CLR 18/11 A3009 RMK AO2
KORB 250033Z AUTO 11006KT 10SM CLR 19/11 A3007 RMK AO2
KORB 250013Z AUTO 10005KT 10SM CLR 19/12 A3007 RMK AO2
KORB 242353Z AUTO 00000KT 10SM CLR 19/12 A3006 RMK AO2
KORB 242333Z AUTO 10003KT 10SM CLR 19/12 A3007 RMK AO2
KORB 242313Z AUTO 07005KT 10SM CLR 20/12 A3007 RMK AO2
KORB 242253Z AUTO 10004KT 10SM CLR 20/11 A3007 RMK AO2
KORB 242234Z AUTO 09004KT 10SM CLR 20/12 A3007 RMK AO2
KORB 242213Z AUTO 08004KT 10SM CLR 20/12 A3007 RMK AO2
KORB 242153Z AUTO 11003KT 10SM CLR 21/12 A3008 RMK AO2
KORB 242133Z AUTO 09003KT 10SM SCT033 20/11 A3007 RMK AO2
KORB 242113Z AUTO 10004KT 10SM SCT033 21/12 A3007 RMK AO2
KORB 242053Z AUTO 14007KT 080V160 10SM SCT033 21/12 A3007 RMK AO2
KORB 242033Z AUTO 10005KT 10SM SCT033 21/12 A3007 RMK AO2
KORB 242013Z AUTO 12006KT 10SM SCT033 21/11 A3007 RMK AO2
KORB 241953Z AUTO 12006KT 10SM SCT033 21/12 A3007 RMK AO2
KORB 241933Z AUTO 14005KT 10SM BKN033 21/12 A3007 RMK AO2
KORB 241913Z AUTO 11003KT 10SM BKN033 21/12 A3007 RMK AO2
KORB 241853Z AUTO 13004KT 10SM SCT033 22/11 A3006 RMK AO2
KORB 241833Z AUTO 11005KT 10SM SCT031 21/11 A3006 RMK AO2
KORB 241813Z AUTO 11004KT 10SM BKN029 21/11 A3006 RMK AO2
KORB 241753Z AUTO 06004KT 10SM SCT027 21/12 A3006 RMK AO2
KORB 241733Z AUTO 10004KT 10SM SCT027 20/12 A3005 RMK AO2
KORB 241713Z AUTO 11004KT 10SM BKN025 19/11 A3005 RMK AO2
KORB 241653Z AUTO 13007KT 060V150 10SM BKN025 19/11 A3004 RMK AO2
KORB 241633Z AUTO 00000KT 10SM BKN023 19/11 A3004 RMK AO2
KORB 241613Z AUTO 14006KT 10SM BKN023 18/11 A3003 RMK AO2
KORB 241553Z AUTO 10005KT 10SM SCT023 18/11 A3004 RMK AO2
KORB 241533Z AUTO 10004KT 10SM SCT023 17/11 A3002 RMK AO2
KORB 241513Z AUTO 08004KT 10SM CLR 17/11 A3002 RMK AO2
KORB 241453Z AUTO 13003KT 10SM CLR 17/11 A3001 RMK AO2
KORB 241433Z AUTO 07005KT 10SM CLR 17/11 A3001 RMK AO2
KORB 241413Z AUTO 11003KT 10SM SCT110 17/11 A3000 RMK AO2
KORB 241353Z AUTO 12004KT 10SM SCT110 16/10 A3001 RMK AO2
KORB 241334Z AUTO 12004KT 10SM SCT018 16/11 A3000 RMK AO2
KORB 241313Z AUTO 12005KT 10SM SCT018 BKN050 16/10 A2999 RMK AO2
KORB 241253Z AUTO 11004KT 10SM SCT050 SCT110 15/10 A2999 RMK AO2
KORB 241233Z AUTO 12006KT 10SM BKN110 14/10 A2999 RMK AO2
KORB 241213Z AUTO 12007KT 070V150 10SM BKN100 14/09 A2998 RMK AO2
KORB 241153Z AUTO 11004KT 10SM SCT110 14/10 A2998 RMK AO2
KORB 241133Z AUTO 00000KT 10SM CLR 13/09 A2997 RMK AO2
KORB 241113Z AUTO 00000KT 10SM SCT065 SCT100 13/09 A2996 RMK AO2
KORB 241053Z AUTO 00000KT 10SM SCT100 13/09 A2995 RMK AO2
KORB 241033Z AUTO 00000KT 10SM CLR 13/09 A2994 RMK AO2
KORB 241013Z AUTO 00000KT 10SM CLR 13/08 A2993 RMK AO2
KORB 240953Z AUTO 00000KT 10SM SCT100 13/08 A2993 RMK AO2
KORB 240933Z AUTO 00000KT 10SM SCT100 13/08 A2993 RMK AO2
KORB 240913Z AUTO 00000KT 10SM SCT110 14/08 A2992 RMK AO2
KORB 240853Z AUTO 13005KT 10SM SCT049 SCT110 14/08 A2991 RMK AO2
KORB 240833Z AUTO 12005KT 10SM BKN049 OVC110 14/08 A2991 RMK AO2
KORB 240813Z AUTO 13007KT 10SM SCT049 OVC110 15/09 A2991 RMK AO2
KORB 240753Z AUTO 13005KT 10SM SCT050 SCT070 OVC100 16/10 A2990 RMK AO2
KORB 240733Z AUTO 14004KT 10SM SCT013 BKN046 OVC100 17/14 A2989 RMK AO2
KORB 240713Z AUTO 09003KT 10SM BKN046 BKN070 17/14 A2988 RMK AO2
KORB 240653Z AUTO 09004KT 10SM SCT044 SCT050 BKN060 17/14 A2988 RMK AO2
KORB 240633Z AUTO 00000KT 10SM SCT050 BKN060 OVC100 17/14 A2987 RMK AO2
KORB 240613Z AUTO 06003KT 10SM SCT060 BKN070 OVC110 17/14 A2987 RMK AO2
KORB 240553Z AUTO 07003KT 10SM SCT080 BKN110 17/14 A2987 RMK AO2
KORB 240533Z AUTO 00000KT 10SM SCT080 BKN110 17/14 A2987 RMK AO2
KORB 240513Z AUTO 00000KT 10SM BKN080 BKN110 17/14 A2986 RMK AO2
KORB 240453Z AUTO 00000KT 10SM SCT080 BKN110 18/14 A2985 RMK AO2
KORB 240433Z AUTO 00000KT 10SM BKN110 18/14 A2983 RMK AO2
KORB 240413Z AUTO 13003KT 10SM BKN110 18/15 A2982 RMK AO2
KORB 240353Z AUTO 14003KT 10SM OVC110 18/16 A2982 RMK AO2
KORB 240333Z AUTO 00000KT 10SM OVC120 18/16 A2982 RMK AO2
KORB 240313Z AUTO 00000KT 10SM SCT120 18/16 A2981 RMK AO2
KORB 240253Z AUTO 00000KT 10SM SCT120 18/16 A2981 RMK AO2
KORB 240233Z AUTO 00000KT 10SM CLR 18/16 A2980 RMK AO2
KORB 240213Z AUTO 00000KT 10SM CLR 19/16 A2979 RMK AO2
KORB 240153Z AUTO 00000KT 10SM CLR 19/16 A2979 RMK AO2
KORB 240133Z AUTO 00000KT 10SM CLR 19/16 A2979 RMK AO2 LTG DSNT SW
KORB 240113Z AUTO 00000KT 10SM CLR 19/16 A2978 RMK AO2
KORB 240053Z AUTO 00000KT 10SM CLR 19/16 A2978 RMK AO2
KORB 240033Z AUTO 00000KT 10SM CLR 20/16 A2978 RMK AO2
KORB 240013Z AUTO 00000KT 10SM SCT055 20/16 A2977 RMK AO2
KORB 232353Z AUTO 00000KT 10SM CLR 20/16 A2977 RMK AO2
KORB 232333Z AUTO 00000KT 10SM CLR 20/16 A2977 RMK AO2
KORB 232313Z AUTO 31003KT 10SM CLR 20/16 A2977 RMK AO2 LTG DSNT N
KORB 232253Z AUTO 00000KT 10SM CLR 21/16 A2977 RMK AO2 LTG DSNT NE
KORB 232233Z AUTO 32003KT 10SM SCT120 21/16 A2978 RMK AO2
KORB 232213Z AUTO 30003KT 10SM CLR 21/16 A2977 RMK AO2 LTG DSNT N
KORB 232153Z AUTO 00000KT 10SM CLR 21/16 A2977 RMK AO2 LTG DSNT N AND NE